createdAt,value
2018-11-04T00:02:27.384Z,76.03
2018-11-04T00:04:56.242Z,76.81
2018-11-04T00:07:24.695Z,76.57
2018-11-04T00:09:53.443Z,76.76
2018-11-04T00:12:21.967Z,77.25
2018-11-04T00:14:50.319Z,77.04
2018-11-04T00:17:18.771Z,77.62
2018-11-04T00:19:47.526Z,76.69
2018-11-04T00:22:16.005Z,76.97
2018-11-04T00:24:44.462Z,76.84
2018-11-04T00:27:12.869Z,77.64
2018-11-04T00:29:41.276Z,78.47
2018-11-04T00:32:09.695Z,77.17
2018-11-04T00:34:38.393Z,76.27
2018-11-04T00:37:07.330Z,77.74
2018-11-04T00:39:36.066Z,77.28
2018-11-04T00:42:04.688Z,77.49
2018-11-04T00:44:33.092Z,76.97
2018-11-04T00:47:01.848Z,76.97
2018-11-04T00:49:30.279Z,76.88
2018-11-04T00:51:59.030Z,77.69
2018-11-04T00:54:27.692Z,76.61
2018-11-04T00:56:56.365Z,77.14
2018-11-04T00:59:24.772Z,77.77
2018-11-04T01:01:53.764Z,77.37
2018-11-04T01:04:22.366Z,76.24
2018-11-04T01:06:50.791Z,77.15
2018-11-04T01:09:19.268Z,78.16
2018-11-04T01:11:48.016Z,77.85
2018-11-04T01:14:16.555Z,77.57
2018-11-04T01:16:45.256Z,78.07
2018-11-04T01:19:13.860Z,78.67
2018-11-04T01:21:42.289Z,79.10
2018-11-04T01:24:11.143Z,78.59
2018-11-04T01:26:39.630Z,78.63
2018-11-04T01:29:08.163Z,79.72
2018-11-04T01:31:36.838Z,77.77
2018-11-04T01:34:05.961Z,78.27
2018-11-04T01:36:34.388Z,77.78
2018-11-04T01:39:03.461Z,78.22
2018-11-04T01:41:32.934Z,79.52
2018-11-04T01:44:01.432Z,79.57
2018-11-04T01:46:30.225Z,78.91
2018-11-04T01:48:58.852Z,79.44
2018-11-04T01:51:27.246Z,77.65
2018-11-04T01:53:55.956Z,77.26
2018-11-04T01:56:24.639Z,77.59
2018-11-04T01:58:53.078Z,77.92
2018-11-04T02:01:21.643Z,78.27
2018-11-04T02:03:51.291Z,78.50
2018-11-04T02:06:20.092Z,77.79
2018-11-04T02:08:48.496Z,79.03
2018-11-04T02:11:16.899Z,77.67
2018-11-04T02:13:45.560Z,80.19
2018-11-04T02:16:14.273Z,79.26
2018-11-04T02:18:42.682Z,78.04
2018-11-04T02:21:11.347Z,76.63
2018-11-04T02:23:40.227Z,78.46
2018-11-04T02:26:08.647Z,77.51
2018-11-04T02:28:37.542Z,78.11
2018-11-04T02:31:06.393Z,78.77
2018-11-04T02:33:34.724Z,81.01
2018-11-04T02:36:03.182Z,80.04
2018-11-04T02:38:32.045Z,78.89
2018-11-04T02:41:02.986Z,79.38
2018-11-04T02:43:31.344Z,80.78
2018-11-04T02:46:00.149Z,79.51
2018-11-04T02:48:28.573Z,78.87
2018-11-04T02:50:57.439Z,77.42
2018-11-04T02:53:25.868Z,77.82
2018-11-04T02:55:54.620Z,77.41
2018-11-04T02:58:23.346Z,79.16
2018-11-04T03:00:51.917Z,78.70
2018-11-04T03:03:20.300Z,78.37
2018-11-04T03:05:48.786Z,78.88
2018-11-04T03:08:17.332Z,78.05
2018-11-04T03:10:45.736Z,78.15
2018-11-04T03:13:14.320Z,78.35
2018-11-04T03:15:43.096Z,78.29
2018-11-04T03:18:11.754Z,78.56
2018-11-04T03:20:41.010Z,79.04
2018-11-04T03:23:09.473Z,79.49
2018-11-04T03:25:38.387Z,79.85
2018-11-04T03:28:07.886Z,79.23
2018-11-04T03:30:37.192Z,79.54
2018-11-04T03:33:06.235Z,78.86
2018-11-04T03:35:34.620Z,80.46
2018-11-04T03:38:04.347Z,78.96
2018-11-04T03:40:32.878Z,79.21
2018-11-04T03:43:01.390Z,78.92
2018-11-04T03:45:36.575Z,78.83
2018-11-04T03:48:05.740Z,78.45
2018-11-04T03:50:34.208Z,78.62
2018-11-04T03:53:05.190Z,77.52
2018-11-04T03:55:34.330Z,77.83
2018-11-04T03:58:02.964Z,77.20
2018-11-04T04:00:31.375Z,77.18
2018-11-04T04:03:00.445Z,77.80
2018-11-04T04:05:28.856Z,77.21
2018-11-04T04:07:57.819Z,76.80
2018-11-04T04:10:26.691Z,77.25
2018-11-04T04:12:55.290Z,77.74
2018-11-04T04:15:24.203Z,78.04
2018-11-04T04:17:52.857Z,77.68
2018-11-04T04:20:21.484Z,77.49
2018-11-04T04:22:50.166Z,78.61
2018-11-04T04:25:19.176Z,77.28
2018-11-04T04:27:47.837Z,78.00
2018-11-04T04:30:16.266Z,76.76
2018-11-04T04:32:44.639Z,77.01
2018-11-04T04:35:13.308Z,77.83
2018-11-04T04:37:41.892Z,78.09
2018-11-04T04:40:10.734Z,77.46
2018-11-04T04:42:39.465Z,77.40
2018-11-04T04:45:07.837Z,77.72
2018-11-04T04:47:36.424Z,76.96
2018-11-04T04:50:05.183Z,77.06
2018-11-04T04:52:33.570Z,78.02
2018-11-04T04:55:02.257Z,77.54
2018-11-04T04:57:30.658Z,76.58
2018-11-04T04:59:59.538Z,77.17
2018-11-04T05:02:31.171Z,77.72
2018-11-04T05:04:59.608Z,77.17
2018-11-04T05:07:28.241Z,76.77
2018-11-04T05:09:56.653Z,76.96
2018-11-04T05:12:25.243Z,77.98
2018-11-04T05:14:53.774Z,77.41
2018-11-04T05:17:22.172Z,76.75
2018-11-04T05:19:50.772Z,77.20
2018-11-04T05:22:19.428Z,76.54
2018-11-04T05:24:47.876Z,76.55
2018-11-04T05:27:16.402Z,77.58
2018-11-04T05:29:45.402Z,78.32
2018-11-04T05:32:16.809Z,77.49
2018-11-04T05:34:45.212Z,76.98
2018-11-04T05:37:14.145Z,76.51
2018-11-04T05:39:42.744Z,76.38
2018-11-04T05:42:11.357Z,77.70
2018-11-04T05:44:40.487Z,76.76
2018-11-04T05:47:09.374Z,77.94
2018-11-04T05:49:38.103Z,76.83
2018-11-04T05:52:06.548Z,77.20
2018-11-04T05:54:34.934Z,78.65
2018-11-04T05:57:03.550Z,77.38
2018-11-04T05:59:32.194Z,77.05
2018-11-04T06:02:00.725Z,76.86
2018-11-04T06:04:29.516Z,76.21
2018-11-04T06:06:58.068Z,77.05
2018-11-04T06:09:26.662Z,77.63
2018-11-04T06:11:55.074Z,77.59
2018-11-04T06:14:23.456Z,76.29
2018-11-04T06:16:52.178Z,76.86
2018-11-04T06:19:21.058Z,76.52
2018-11-04T06:21:49.748Z,77.25
2018-11-04T06:24:18.743Z,76.55
2018-11-04T06:26:47.392Z,77.03
2018-11-04T06:29:16.319Z,76.75
2018-11-04T06:31:44.729Z,77.09
2018-11-04T06:34:13.183Z,76.25
2018-11-04T06:36:41.798Z,76.78
2018-11-04T06:39:10.451Z,76.52
2018-11-04T06:41:38.898Z,76.68
2018-11-04T06:44:08.196Z,77.81
2018-11-04T06:46:37.481Z,77.17
2018-11-04T06:49:06.216Z,76.36
2018-11-04T06:51:36.036Z,76.05
2018-11-04T06:54:04.680Z,76.49
2018-11-04T06:56:33.149Z,76.77
2018-11-04T06:59:01.527Z,77.37
2018-11-04T07:01:30.251Z,76.43
2018-11-04T07:04:15.558Z,75.76
2018-11-04T07:06:44.308Z,75.42
2018-11-04T07:09:13.682Z,75.73
2018-11-04T07:11:42.674Z,75.29
2018-11-04T07:14:11.374Z,75.37
2018-11-04T07:16:40.148Z,75.96
2018-11-04T07:19:08.618Z,74.78
2018-11-04T07:21:38.469Z,74.17
2018-11-04T07:24:06.889Z,73.88
2018-11-04T07:26:36.039Z,74.42
2018-11-04T07:29:05.295Z,74.95
2018-11-04T07:31:33.855Z,74.95
2018-11-04T07:34:02.233Z,75.58
2018-11-04T07:36:30.712Z,75.22
2018-11-04T07:38:59.203Z,75.55
2018-11-04T07:41:27.721Z,75.07
2018-11-04T07:43:56.365Z,74.80
2018-11-04T07:46:24.963Z,74.83
2018-11-04T07:48:53.704Z,74.38
2018-11-04T07:51:22.469Z,74.04
2018-11-04T07:53:50.936Z,73.59
2018-11-04T07:56:19.360Z,74.96
2018-11-04T07:58:47.866Z,73.86
2018-11-04T08:01:16.499Z,74.82
2018-11-04T08:03:44.903Z,73.65
2018-11-04T08:06:13.283Z,72.88
2018-11-04T08:08:41.892Z,73.71
2018-11-04T08:11:10.743Z,72.79
2018-11-04T08:13:39.890Z,72.50
2018-11-04T08:16:08.245Z,73.55
2018-11-04T08:18:37.220Z,72.87
2018-11-04T08:21:05.881Z,73.42
2018-11-04T08:23:34.794Z,72.82
2018-11-04T08:26:03.697Z,72.94
2018-11-04T08:28:32.060Z,73.39
2018-11-04T08:31:00.704Z,72.99
2018-11-04T08:33:29.492Z,73.70
2018-11-04T08:35:58.030Z,73.33
2018-11-04T08:38:26.570Z,71.73
2018-11-04T08:40:55.244Z,70.72
2018-11-04T08:43:23.972Z,71.70
2018-11-04T08:45:52.732Z,71.36
2018-11-04T08:48:21.289Z,70.83
2018-11-04T08:50:49.671Z,70.68
2018-11-04T08:53:18.374Z,70.82
2018-11-04T08:55:46.824Z,70.91
2018-11-04T08:58:15.361Z,70.31
2018-11-04T09:00:43.928Z,70.02
2018-11-04T09:03:12.385Z,70.85
2018-11-04T09:05:40.865Z,69.41
2018-11-04T09:08:09.288Z,68.81
2018-11-04T09:10:37.927Z,67.60
2018-11-04T09:13:06.683Z,66.57
2018-11-04T09:15:35.135Z,66.74
2018-11-04T09:18:03.814Z,67.07
2018-11-04T09:20:33.441Z,66.72
2018-11-04T09:23:01.966Z,66.34
2018-11-04T09:25:30.489Z,65.89
2018-11-04T09:27:59.029Z,65.83
2018-11-04T09:30:27.550Z,65.86
2018-11-04T09:32:56.024Z,66.85
2018-11-04T09:35:24.567Z,66.33
2018-11-04T09:37:53.156Z,66.62
2018-11-04T09:40:22.356Z,67.04
2018-11-04T09:42:50.805Z,67.72
2018-11-04T09:45:19.710Z,66.61
2018-11-04T09:47:48.179Z,65.95
2018-11-04T09:50:16.660Z,65.83
2018-11-04T09:52:45.625Z,65.22
2018-11-04T09:55:14.296Z,64.67
2018-11-04T09:57:42.951Z,64.73
2018-11-04T10:00:12.059Z,64.72
2018-11-04T10:02:40.725Z,65.61
2018-11-04T10:05:10.032Z,67.70
2018-11-04T10:07:38.968Z,68.00
2018-11-04T10:10:10.233Z,66.86
2018-11-04T10:12:39.496Z,66.51
2018-11-04T10:15:08.593Z,67.19
2018-11-04T10:17:37.383Z,66.08
2018-11-04T10:20:07.164Z,65.33
2018-11-04T10:22:35.568Z,65.75
2018-11-04T10:25:04.883Z,65.50
2018-11-04T10:27:33.876Z,65.50
2018-11-04T10:30:02.482Z,63.85
2018-11-04T10:32:30.981Z,63.55
2018-11-04T10:34:59.445Z,63.21
2018-11-04T10:37:27.942Z,62.56
2018-11-04T10:39:56.439Z,63.22
2018-11-04T10:42:25.132Z,63.43
2018-11-04T10:44:53.534Z,64.89
2018-11-04T10:47:21.913Z,66.83
2018-11-04T10:49:51.289Z,65.80
2018-11-04T10:52:19.703Z,66.87
2018-11-04T10:54:48.153Z,66.37
2018-11-04T10:57:16.561Z,66.13
2018-11-04T10:59:44.988Z,66.67
2018-11-04T11:02:13.426Z,67.47
2018-11-04T11:04:41.923Z,67.97
2018-11-04T11:07:10.385Z,66.54
2018-11-04T11:09:39.159Z,65.33
2018-11-04T11:12:07.592Z,65.92
2018-11-04T11:14:36.776Z,64.84
2018-11-04T11:17:05.788Z,63.65
2018-11-04T11:19:34.417Z,64.75
2018-11-04T11:22:02.956Z,64.57
2018-11-04T11:24:32.568Z,64.76
2018-11-04T11:27:01.419Z,64.84
2018-11-04T11:29:30.012Z,64.95
2018-11-04T11:31:58.600Z,65.71
2018-11-04T11:34:27.330Z,65.73
2018-11-04T11:36:55.898Z,67.08
2018-11-04T11:39:24.511Z,66.02
2018-11-04T11:41:53.369Z,65.74
2018-11-04T11:44:21.946Z,65.70
2018-11-04T11:46:50.763Z,64.86
2018-11-04T11:49:19.455Z,65.27
2018-11-04T11:51:47.909Z,64.83
2018-11-04T11:54:16.454Z,66.08
2018-11-04T11:56:45.469Z,67.00
2018-11-04T11:59:14.108Z,68.74
2018-11-04T12:01:42.773Z,68.33
2018-11-04T12:04:11.260Z,67.68
2018-11-04T12:06:40.036Z,66.94
2018-11-04T12:09:15.070Z,66.94
2018-11-04T12:11:43.552Z,65.95
2018-11-04T12:14:12.073Z,64.74
2018-11-04T12:16:40.917Z,64.34
2018-11-04T12:19:09.616Z,65.51
2018-11-04T12:21:38.350Z,67.36
2018-11-04T12:24:06.994Z,66.73
2018-11-04T12:26:36.199Z,65.47
2018-11-04T12:29:05.124Z,66.62
2018-11-04T12:31:33.836Z,66.32
2018-11-04T12:34:02.336Z,67.06
2018-11-04T12:36:30.811Z,66.85
2018-11-04T12:38:59.263Z,66.76
2018-11-04T12:41:27.677Z,67.27
2018-11-04T12:43:56.163Z,67.08
2018-11-04T12:46:24.887Z,66.02
2018-11-04T12:48:53.615Z,66.47
2018-11-04T12:51:22.160Z,67.44
2018-11-04T12:53:50.895Z,67.40
2018-11-04T12:56:19.602Z,66.32
2018-11-04T12:58:48.411Z,67.00
2018-11-04T13:01:16.895Z,67.79
2018-11-04T13:03:45.642Z,66.75
2018-11-04T13:06:14.366Z,67.65
2018-11-04T13:08:43.069Z,67.84
2018-11-04T13:11:11.824Z,68.18
2018-11-04T13:13:40.215Z,67.60
2018-11-04T13:16:08.640Z,67.35
2018-11-04T13:18:37.532Z,66.57
2018-11-04T13:21:06.264Z,66.25
2018-11-04T13:23:35.360Z,66.87
2018-11-04T13:26:03.732Z,66.21
2018-11-04T13:28:32.698Z,68.24
2018-11-04T13:31:01.507Z,67.50
2018-11-04T13:33:30.038Z,67.13
2018-11-04T13:35:58.653Z,67.82
2018-11-04T13:38:27.545Z,70.16
2018-11-04T13:40:56.209Z,68.85
2018-11-04T13:43:25.604Z,69.05
2018-11-04T13:45:54.125Z,69.63
2018-11-04T13:48:22.825Z,69.61
2018-11-04T13:50:51.243Z,71.37
2018-11-04T13:53:19.764Z,71.25
2018-11-04T13:55:48.874Z,70.44
2018-11-04T13:58:17.297Z,69.00
2018-11-04T14:00:45.833Z,68.54
2018-11-04T14:03:14.466Z,68.41
2018-11-04T14:05:42.928Z,69.85
2018-11-04T14:08:11.277Z,71.56
2018-11-04T14:10:39.916Z,70.66
2018-11-04T14:13:08.329Z,70.66
2018-11-04T14:15:36.800Z,70.62
2018-11-04T14:18:05.551Z,70.66
2018-11-04T14:20:34.152Z,70.45
2018-11-04T14:23:02.884Z,70.92
2018-11-04T14:25:31.448Z,70.70
2018-11-04T14:28:00.392Z,71.08
2018-11-04T14:30:28.967Z,71.27
2018-11-04T14:32:57.385Z,71.53
2018-11-04T14:35:25.724Z,71.57
2018-11-04T14:37:54.113Z,71.48
2018-11-04T14:40:22.565Z,71.57
2018-11-04T14:42:51.233Z,74.27
2018-11-04T14:45:19.927Z,73.69
2018-11-04T14:47:48.450Z,73.95
2018-11-04T14:50:18.694Z,74.05
2018-11-04T14:52:48.110Z,73.74
2018-11-04T14:55:16.544Z,74.32
2018-11-04T14:57:45.023Z,74.09
2018-11-04T15:00:14.910Z,74.38
2018-11-04T15:02:43.603Z,73.84
2018-11-04T15:05:12.164Z,74.12
2018-11-04T15:07:40.879Z,73.63
2018-11-04T15:10:11.912Z,73.72
2018-11-04T15:12:40.502Z,74.20
2018-11-04T15:15:13.870Z,74.02
2018-11-04T15:17:42.470Z,74.66
2018-11-04T15:20:11.463Z,74.51
2018-11-04T15:22:43.805Z,74.20
2018-11-04T15:25:12.410Z,74.24
2018-11-04T15:27:40.959Z,73.85
2018-11-04T15:30:10.146Z,74.76
2018-11-04T15:32:39.394Z,75.75
2018-11-04T15:35:07.907Z,75.54
2018-11-04T15:37:36.453Z,74.98
2018-11-04T15:40:06.809Z,74.88
2018-11-04T15:42:35.269Z,74.79
2018-11-04T15:45:03.873Z,74.95
2018-11-04T15:47:32.541Z,74.88
2018-11-04T15:50:01.427Z,75.08
2018-11-04T15:52:30.134Z,75.95
2018-11-04T15:54:58.823Z,76.81
2018-11-04T15:57:27.299Z,76.13
2018-11-04T15:59:55.772Z,75.94
2018-11-04T16:02:24.909Z,75.91
2018-11-04T16:04:53.579Z,76.03
2018-11-04T16:07:22.113Z,77.23
2018-11-04T16:09:50.693Z,77.55
2018-11-04T16:12:19.255Z,76.79
2018-11-04T16:14:48.128Z,76.22
2018-11-04T16:17:17.186Z,76.23
2018-11-04T16:19:45.964Z,75.77
2018-11-04T16:22:14.396Z,76.13
2018-11-04T16:24:42.895Z,75.94
2018-11-04T16:27:11.488Z,76.61
2018-11-04T16:29:40.070Z,77.19
2018-11-04T16:32:08.592Z,76.68
2018-11-04T16:34:37.724Z,76.31
2018-11-04T16:37:06.345Z,77.21
2018-11-04T16:39:34.840Z,78.06
2018-11-04T16:42:03.324Z,76.26
2018-11-04T16:44:32.064Z,76.62
2018-11-04T16:47:01.612Z,77.15
2018-11-04T16:49:30.333Z,76.69
2018-11-04T16:51:58.933Z,77.28
2018-11-04T16:54:27.705Z,77.57
2018-11-04T16:56:56.220Z,77.66
2018-11-04T16:59:25.346Z,77.58
2018-11-04T17:01:53.809Z,78.07
2018-11-04T17:04:22.705Z,77.70
2018-11-04T17:06:51.053Z,76.56
2018-11-04T17:09:19.628Z,77.90
2018-11-04T17:11:48.076Z,77.34
2018-11-04T17:14:17.203Z,77.40
2018-11-04T17:16:46.810Z,77.78
2018-11-04T17:19:22.176Z,77.67
2018-11-04T17:21:53.135Z,77.57
2018-11-04T17:24:24.032Z,77.32
2018-11-04T17:26:57.839Z,78.13
2018-11-04T17:29:27.821Z,78.26
2018-11-04T17:31:58.937Z,77.63
2018-11-04T17:34:28.020Z,77.60
2018-11-04T17:36:56.509Z,78.17
2018-11-04T17:39:25.462Z,77.30
2018-11-04T17:41:53.881Z,77.72
2018-11-04T17:44:22.689Z,78.29
2018-11-04T17:46:51.714Z,78.35
2018-11-04T17:49:20.182Z,78.28
2018-11-04T17:51:48.589Z,77.43
2018-11-04T17:54:17.167Z,79.65
2018-11-04T17:56:45.684Z,79.19
2018-11-04T17:59:14.352Z,78.19
2018-11-04T18:01:43.130Z,78.04
2018-11-04T18:04:11.699Z,77.50
2018-11-04T18:06:40.387Z,77.83
2018-11-04T18:09:09.282Z,77.78
2018-11-04T18:11:38.060Z,77.76
2018-11-04T18:14:06.473Z,77.67
2018-11-04T18:16:35.307Z,77.89
2018-11-04T18:19:03.916Z,78.40
2018-11-04T18:21:32.555Z,78.32
2018-11-04T18:24:01.028Z,78.37
2018-11-04T18:26:29.563Z,78.22
2018-11-04T18:28:57.912Z,77.85
2018-11-04T18:31:26.336Z,78.24
2018-11-04T18:33:55.021Z,78.92
2018-11-04T18:36:23.471Z,78.55
2018-11-04T18:38:52.172Z,78.62
2018-11-04T18:41:21.033Z,78.20
2018-11-04T18:43:49.796Z,78.30
2018-11-04T18:46:18.183Z,78.44
2018-11-04T18:48:47.435Z,78.26
2018-11-04T18:51:15.893Z,78.65
2018-11-04T18:53:44.281Z,79.00
2018-11-04T18:56:13.048Z,78.42
2018-11-04T18:58:42.519Z,78.86
2018-11-04T19:01:11.309Z,78.46
2018-11-04T19:03:40.113Z,78.97
2018-11-04T19:06:08.711Z,78.80
2018-11-04T19:08:37.104Z,79.41
2018-11-04T19:11:05.999Z,79.58
2018-11-04T19:13:34.988Z,78.19
2018-11-04T19:16:04.252Z,78.66
2018-11-04T19:18:33.242Z,80.33
2018-11-04T19:21:01.685Z,79.23
2018-11-04T19:23:30.232Z,78.25
2018-11-04T19:25:58.991Z,78.54
2018-11-04T19:28:27.561Z,80.21
2018-11-04T19:30:56.026Z,79.18
2018-11-04T19:33:24.465Z,79.37
2018-11-04T19:35:53.263Z,79.00
2018-11-04T19:38:21.868Z,79.20
2018-11-04T19:40:50.970Z,78.49
2018-11-04T19:43:19.681Z,78.53
2018-11-04T19:45:48.164Z,78.90
2018-11-04T19:48:16.852Z,78.13
2018-11-04T19:50:45.540Z,79.55
2018-11-04T19:53:14.491Z,79.97
2018-11-04T19:55:42.915Z,78.45
2018-11-04T19:58:11.429Z,79.47
2018-11-04T20:00:39.937Z,79.70
2018-11-04T20:03:08.586Z,79.36
2018-11-04T20:05:37.249Z,78.73
2018-11-04T20:08:05.854Z,78.99
2018-11-04T20:10:34.241Z,77.62
2018-11-04T20:13:08.223Z,77.39
2018-11-04T20:15:36.931Z,78.19
2018-11-04T20:18:11.560Z,78.84
2018-11-04T20:20:40.166Z,79.16
2018-11-04T20:23:08.513Z,79.19
2018-11-04T20:25:42.607Z,78.53
2018-11-04T20:28:11.283Z,78.85
2018-11-04T20:30:39.648Z,79.08
2018-11-04T20:33:09.788Z,79.26
2018-11-04T20:35:38.149Z,79.38
2018-11-04T20:38:06.987Z,79.75
2018-11-04T20:40:40.796Z,79.25
2018-11-04T20:43:09.624Z,79.00
2018-11-04T20:45:38.080Z,78.82
2018-11-04T20:48:12.608Z,80.54
2018-11-04T20:50:46.635Z,79.92
2018-11-04T20:53:15.733Z,79.38
2018-11-04T20:55:49.834Z,79.68
2018-11-04T20:58:18.362Z,80.28
2018-11-04T21:00:46.666Z,80.31
2018-11-04T21:03:15.373Z,80.23
2018-11-04T21:05:44.004Z,81.05
2018-11-04T21:08:12.463Z,81.03
2018-11-04T21:10:40.859Z,81.29
2018-11-04T21:13:09.369Z,81.29
2018-11-04T21:15:37.849Z,80.97
2018-11-04T21:18:06.259Z,82.16
2018-11-04T21:20:34.946Z,81.40
2018-11-04T21:23:03.313Z,81.40
2018-11-04T21:25:32.224Z,80.73
2018-11-04T21:28:00.696Z,82.10
2018-11-04T21:30:29.232Z,82.65
2018-11-04T21:32:58.014Z,83.79
2018-11-04T21:35:26.705Z,82.83
2018-11-04T21:37:55.170Z,82.84
2018-11-04T21:40:23.494Z,83.98
2018-11-04T21:42:52.053Z,84.49
2018-11-04T21:45:20.432Z,83.81
2018-11-04T21:47:49.612Z,83.86
2018-11-04T21:50:18.237Z,83.86
2018-11-04T21:52:46.681Z,83.55
2018-11-04T21:55:15.891Z,83.70
2018-11-04T21:57:44.184Z,83.69
2018-11-04T22:00:13.830Z,83.74
2018-11-04T22:02:43.240Z,84.16
2018-11-04T22:05:11.732Z,85.28
2018-11-04T22:07:41.440Z,85.52
2018-11-04T22:10:12.741Z,85.73
2018-11-04T22:12:41.674Z,85.66
2018-11-04T22:15:10.278Z,86.37
2018-11-04T22:17:39.282Z,87.42
2018-11-04T22:20:09.488Z,87.33
2018-11-04T22:22:38.165Z,87.45
2018-11-04T22:25:07.254Z,87.51
2018-11-04T22:27:35.721Z,88.49
2018-11-04T22:30:05.294Z,88.55
2018-11-04T22:32:33.945Z,88.81
2018-11-04T22:35:02.502Z,88.62
2018-11-04T22:37:30.913Z,88.98
2018-11-04T22:39:59.562Z,88.80
2018-11-04T22:42:28.315Z,88.76
2018-11-04T22:44:56.732Z,87.72
2018-11-04T22:47:25.080Z,89.18
2018-11-04T22:49:54.341Z,89.44
2018-11-04T22:52:23.383Z,89.73
2018-11-04T22:54:52.052Z,90.04
2018-11-04T22:57:21.663Z,87.68
2018-11-04T22:59:50.443Z,88.03
2018-11-04T23:02:20.771Z,89.58
2018-11-04T23:04:55.002Z,88.71
2018-11-04T23:07:23.414Z,88.55
2018-11-04T23:09:51.914Z,87.61
2018-11-04T23:12:20.925Z,87.21
2018-11-04T23:14:49.659Z,87.97
2018-11-04T23:17:18.754Z,89.83
2018-11-04T23:19:47.404Z,88.99
2018-11-04T23:22:15.779Z,88.48
2018-11-04T23:24:44.724Z,88.26
2018-11-04T23:27:13.209Z,87.78
2018-11-04T23:29:41.711Z,86.67
2018-11-04T23:32:10.439Z,87.27
2018-11-04T23:34:38.965Z,89.35
2018-11-04T23:37:07.354Z,87.79
2018-11-04T23:39:35.724Z,86.77
2018-11-04T23:42:05.156Z,86.61
2018-11-04T23:44:33.518Z,88.13
2018-11-04T23:47:01.893Z,88.20
2018-11-04T23:49:30.778Z,89.28
2018-11-04T23:51:59.214Z,88.01
2018-11-04T23:54:27.836Z,87.10
2018-11-04T23:56:56.287Z,87.59
2018-11-04T23:59:25.153Z,87.27
